createdAt,value
2023-12-08T00:02:05.334Z,75.05
2023-12-08T00:04:31.860Z,75.46
2023-12-08T00:06:58.426Z,75.53
2023-12-08T00:09:26.226Z,75.20
2023-12-08T00:11:52.730Z,74.90
2023-12-08T00:14:19.557Z,74.97
2023-12-08T00:16:46.110Z,75.07
2023-12-08T00:19:12.766Z,74.70
2023-12-08T00:21:39.377Z,73.76
2023-12-08T00:24:06.261Z,73.77
2023-12-08T00:26:32.874Z,74.01
2023-12-08T00:28:59.507Z,73.98
2023-12-08T00:31:25.984Z,73.71
2023-12-08T00:33:52.964Z,73.42
2023-12-08T00:36:19.803Z,73.19
2023-12-08T00:38:46.503Z,73.05
2023-12-08T00:41:13.009Z,72.65
2023-12-08T00:43:39.730Z,72.95
2023-12-08T00:46:06.437Z,73.03
2023-12-08T00:48:33.212Z,72.82
2023-12-08T00:51:00.156Z,72.23
2023-12-08T00:53:26.970Z,72.28
2023-12-08T00:55:54.449Z,72.39
2023-12-08T01:00:37.598Z,72.36
2023-12-08T01:03:04.307Z,72.41
2023-12-08T01:05:31.950Z,73.08
2023-12-08T01:07:58.454Z,72.88
2023-12-08T01:10:25.055Z,73.01
2023-12-08T01:12:51.544Z,72.53
2023-12-08T01:15:18.060Z,73.00
2023-12-08T01:17:44.708Z,73.26
2023-12-08T01:20:11.594Z,72.77
2023-12-08T01:22:38.809Z,72.78
2023-12-08T01:25:05.720Z,72.91
2023-12-08T01:27:32.233Z,72.75
2023-12-08T01:29:58.775Z,73.06
2023-12-08T01:32:25.319Z,72.94
2023-12-08T01:34:51.922Z,73.19
2023-12-08T01:37:18.340Z,73.15
2023-12-08T01:39:44.870Z,73.58
2023-12-08T01:42:11.488Z,73.13
2023-12-08T01:44:38.060Z,73.28
2023-12-08T01:47:06.442Z,73.80
2023-12-08T01:49:34.108Z,73.74
2023-12-08T01:52:00.839Z,73.86
2023-12-08T01:54:27.918Z,73.82
2023-12-08T01:56:54.511Z,73.94
2023-12-08T01:59:22.021Z,73.90
2023-12-08T02:01:49.019Z,74.02
2023-12-08T02:04:15.708Z,73.84
2023-12-08T02:06:42.364Z,74.19
2023-12-08T02:09:09.059Z,74.76
2023-12-08T02:11:36.554Z,75.67
2023-12-08T02:14:03.925Z,76.61
2023-12-08T02:16:54.264Z,77.35
2023-12-08T02:19:21.929Z,77.89
2023-12-08T02:21:48.669Z,78.23
2023-12-08T02:24:20.231Z,79.17
2023-12-08T02:26:49.426Z,78.68
2023-12-08T02:29:17.171Z,80.04
2023-12-08T02:31:59.811Z,81.07
2023-12-08T02:34:28.306Z,80.64
2023-12-08T02:36:56.213Z,81.02
2023-12-08T02:39:23.966Z,81.29
2023-12-08T02:41:51.884Z,81.48
2023-12-08T02:44:18.393Z,81.48
2023-12-08T02:46:45.396Z,80.32
2023-12-08T02:49:11.997Z,79.45
2023-12-08T02:51:38.675Z,78.80
2023-12-08T02:54:05.322Z,78.11
2023-12-08T02:56:31.830Z,78.55
2023-12-08T02:58:58.399Z,77.86
2023-12-08T03:01:25.017Z,78.18
2023-12-08T03:03:51.711Z,78.51
2023-12-08T03:06:18.439Z,77.87
2023-12-08T03:08:44.978Z,77.62
2023-12-08T03:11:11.518Z,78.51
2023-12-08T03:13:37.969Z,78.34
2023-12-08T03:16:04.820Z,78.40
2023-12-08T03:18:31.404Z,78.64
2023-12-08T03:20:58.003Z,78.80
2023-12-08T03:23:24.441Z,79.55
2023-12-08T03:25:52.318Z,79.65
2023-12-08T03:28:18.772Z,80.32
2023-12-08T03:30:45.624Z,80.90
2023-12-08T03:33:12.210Z,81.29
2023-12-08T03:35:38.835Z,81.39
2023-12-08T03:38:05.548Z,81.70
2023-12-08T03:40:32.052Z,82.04
2023-12-08T03:42:58.529Z,82.35
2023-12-08T03:45:25.243Z,82.89
2023-12-08T03:47:52.025Z,82.85
2023-12-08T03:50:18.601Z,83.33
2023-12-08T03:52:45.876Z,83.97
2023-12-08T03:55:12.372Z,84.37
2023-12-08T03:57:38.822Z,84.33
2023-12-08T04:00:06.607Z,85.07
2023-12-08T04:02:33.444Z,85.69
2023-12-08T04:04:59.921Z,86.12
2023-12-08T04:07:26.557Z,86.17
2023-12-08T04:09:53.085Z,86.85
2023-12-08T04:12:21.423Z,87.35
2023-12-08T04:14:48.006Z,88.15
2023-12-08T04:17:14.560Z,88.30
2023-12-08T04:19:41.285Z,88.27
2023-12-08T04:22:07.724Z,88.70
2023-12-08T04:24:34.422Z,88.42
2023-12-08T04:27:00.955Z,88.86
2023-12-08T04:29:28.113Z,89.56
2023-12-08T04:31:54.596Z,90.07
2023-12-08T04:34:21.120Z,89.59
2023-12-08T04:36:47.642Z,89.83
2023-12-08T04:39:14.169Z,89.83
2023-12-08T04:41:40.710Z,89.97
2023-12-08T04:44:07.219Z,89.95
2023-12-08T04:46:33.665Z,90.50
2023-12-08T04:49:00.315Z,90.62
2023-12-08T04:51:26.880Z,90.80
2023-12-08T04:53:58.196Z,90.86
2023-12-08T04:56:24.593Z,91.12
2023-12-08T04:58:51.200Z,91.45
2023-12-08T05:01:17.679Z,91.62
2023-12-08T05:03:44.208Z,91.88
2023-12-08T05:06:11.375Z,92.00
2023-12-08T05:08:38.283Z,91.99
2023-12-08T05:11:04.909Z,92.10
2023-12-08T05:13:31.503Z,92.39
2023-12-08T05:15:57.949Z,92.44
2023-12-08T05:18:24.718Z,92.56
2023-12-08T05:20:51.303Z,92.55
2023-12-08T05:23:19.312Z,92.55
2023-12-08T05:25:45.881Z,92.71
2023-12-08T05:28:12.580Z,92.68
2023-12-08T05:30:39.010Z,92.70
2023-12-08T05:33:05.766Z,92.71
2023-12-08T05:35:32.325Z,92.57
2023-12-08T05:37:58.825Z,92.59
2023-12-08T05:40:25.385Z,92.55
2023-12-08T05:42:51.982Z,92.70
2023-12-08T05:45:18.923Z,92.75
2023-12-08T05:47:46.309Z,92.46
2023-12-08T05:50:12.831Z,92.23
2023-12-08T05:52:39.231Z,92.12
2023-12-08T05:55:06.379Z,92.28
2023-12-08T05:57:32.936Z,92.28
2023-12-08T05:59:59.675Z,92.24
2023-12-08T06:02:26.198Z,92.28
2023-12-08T06:04:53.158Z,92.34
2023-12-08T06:07:19.828Z,92.30
2023-12-08T06:09:46.338Z,92.11
2023-12-08T06:12:12.823Z,92.01
2023-12-08T06:14:39.434Z,91.96
2023-12-08T06:17:07.326Z,91.93
2023-12-08T06:19:34.729Z,91.92
2023-12-08T06:22:04.243Z,91.70
2023-12-08T06:24:30.771Z,91.68
2023-12-08T06:26:57.996Z,91.82
2023-12-08T06:29:24.656Z,91.78
2023-12-08T06:31:56.718Z,91.76
2023-12-08T06:34:23.384Z,91.43
2023-12-08T06:36:50.480Z,91.58
2023-12-08T06:39:17.424Z,91.55
2023-12-08T06:41:44.835Z,91.44
2023-12-08T06:44:11.750Z,91.54
2023-12-08T06:46:38.525Z,91.50
2023-12-08T06:49:05.287Z,91.47
2023-12-08T06:51:36.949Z,91.54
2023-12-08T06:54:04.838Z,91.40
2023-12-08T06:56:31.501Z,91.46
2023-12-08T06:58:58.172Z,91.36
2023-12-08T07:01:24.909Z,91.02
2023-12-08T07:03:53.637Z,90.81
2023-12-08T07:06:20.328Z,90.96
2023-12-08T07:08:46.907Z,91.01
2023-12-08T07:11:13.402Z,91.05
2023-12-08T07:13:39.851Z,90.93
2023-12-08T07:16:07.030Z,91.03
2023-12-08T07:18:33.706Z,90.76
2023-12-08T07:21:00.362Z,90.71
2023-12-08T07:23:26.859Z,90.60
2023-12-08T07:25:53.295Z,90.63
2023-12-08T07:28:19.754Z,90.54
2023-12-08T07:32:36.697Z,90.70
2023-12-08T07:35:03.259Z,90.68
2023-12-08T07:37:29.994Z,90.69
2023-12-08T07:39:56.494Z,90.71
2023-12-08T07:42:23.122Z,90.57
2023-12-08T07:44:49.694Z,90.58
2023-12-08T07:47:17.408Z,90.77
2023-12-08T07:49:43.977Z,90.64
2023-12-08T07:52:11.702Z,90.54
2023-12-08T07:54:38.101Z,90.79
2023-12-08T07:57:04.909Z,90.53
2023-12-08T07:59:31.426Z,90.60
2023-12-08T08:01:57.991Z,90.49
2023-12-08T08:04:24.389Z,90.44
2023-12-08T08:06:51.355Z,90.56
2023-12-08T08:09:19.265Z,90.71
2023-12-08T08:11:45.964Z,90.64
2023-12-08T08:14:12.586Z,90.89
2023-12-08T08:16:40.051Z,91.09
2023-12-08T08:19:06.725Z,91.26
2023-12-08T08:21:33.792Z,91.20
2023-12-08T08:24:00.434Z,91.25
2023-12-08T08:26:27.093Z,91.20
2023-12-08T08:28:53.501Z,91.34
2023-12-08T08:31:21.182Z,91.19
2023-12-08T08:33:47.989Z,91.28
2023-12-08T08:36:14.676Z,91.28
2023-12-08T08:38:41.354Z,91.31
2023-12-08T08:41:08.232Z,90.96
2023-12-08T08:43:35.932Z,91.09
2023-12-08T08:46:02.562Z,91.20
2023-12-08T08:48:29.475Z,91.04
2023-12-08T08:50:58.363Z,91.04
2023-12-08T08:53:24.890Z,91.10
2023-12-08T08:55:52.789Z,91.08
2023-12-08T08:58:19.353Z,90.93
2023-12-08T09:00:46.931Z,90.88
2023-12-08T09:03:13.688Z,90.91
2023-12-08T09:05:42.913Z,90.82
2023-12-08T09:08:10.701Z,90.96
2023-12-08T09:10:38.170Z,91.16
2023-12-08T09:13:04.802Z,91.50
2023-12-08T09:15:31.849Z,91.73
2023-12-08T09:17:58.407Z,91.77
2023-12-08T09:20:25.094Z,92.07
2023-12-08T09:22:54.900Z,92.23
2023-12-08T09:25:22.826Z,92.38
2023-12-08T09:27:49.608Z,92.16
2023-12-08T09:30:16.850Z,92.34
2023-12-08T09:32:44.179Z,92.34
2023-12-08T09:35:11.007Z,92.47
2023-12-08T09:37:38.107Z,92.76
2023-12-08T09:40:09.722Z,93.04
2023-12-08T09:42:40.945Z,93.20
2023-12-08T09:45:12.542Z,93.47
2023-12-08T09:47:44.372Z,93.60
2023-12-08T09:50:16.283Z,93.85
2023-12-08T09:52:46.416Z,94.00
2023-12-08T09:55:14.201Z,94.14
2023-12-08T09:57:45.007Z,94.07
2023-12-08T10:00:14.995Z,94.11
2023-12-08T10:02:42.705Z,94.33
2023-12-08T10:05:11.806Z,94.39
2023-12-08T10:07:41.474Z,94.33
2023-12-08T10:10:11.856Z,94.46
2023-12-08T10:12:40.716Z,94.34
2023-12-08T10:15:12.809Z,94.35
2023-12-08T10:17:49.952Z,94.29
2023-12-08T10:20:18.129Z,94.30
2023-12-08T10:22:48.936Z,94.18
2023-12-08T10:25:17.376Z,94.26
2023-12-08T10:27:46.693Z,94.07
2023-12-08T10:30:14.120Z,94.00
2023-12-08T10:32:40.921Z,93.94
2023-12-08T10:35:08.352Z,93.93
2023-12-08T10:37:36.455Z,93.75
2023-12-08T10:40:03.456Z,93.77
2023-12-08T10:42:30.757Z,93.58
2023-12-08T10:45:00.342Z,93.53
2023-12-08T10:47:28.152Z,93.53
2023-12-08T10:49:55.897Z,93.25
2023-12-08T10:52:23.451Z,93.24
2023-12-08T10:54:52.460Z,93.10
2023-12-08T10:57:19.059Z,93.07
2023-12-08T10:59:49.298Z,92.94
2023-12-08T11:02:22.205Z,92.84
2023-12-08T11:04:57.072Z,92.62
2023-12-08T11:07:33.794Z,92.59
2023-12-08T11:10:07.308Z,92.52
2023-12-08T11:12:44.271Z,92.54
2023-12-08T11:15:17.521Z,92.42
2023-12-08T11:18:01.915Z,92.63
2023-12-08T11:20:29.536Z,92.92
2023-12-08T11:22:56.329Z,93.09
2023-12-08T11:25:30.591Z,93.33
2023-12-08T11:28:04.700Z,93.67
2023-12-08T11:30:57.904Z,93.81
2023-12-08T11:33:40.416Z,93.93
2023-12-08T11:36:11.929Z,94.01
2023-12-08T11:38:38.889Z,94.05
2023-12-08T11:41:13.434Z,94.16
2023-12-08T11:43:46.831Z,94.29
2023-12-08T11:46:16.535Z,94.32
2023-12-08T11:48:44.923Z,94.39
2023-12-08T11:51:12.026Z,94.53
2023-12-08T11:53:55.802Z,94.63
2023-12-08T11:56:45.297Z,94.64
2023-12-08T11:59:20.865Z,94.69
2023-12-08T12:01:48.956Z,94.73
2023-12-08T12:04:15.513Z,94.72
2023-12-08T12:06:44.660Z,94.63
2023-12-08T12:09:13.743Z,94.73
2023-12-08T12:11:40.368Z,94.70
2023-12-08T12:14:09.157Z,94.69
2023-12-08T12:16:38.539Z,94.62
2023-12-08T12:19:05.981Z,94.61
2023-12-08T12:21:32.557Z,94.65
2023-12-08T12:23:59.620Z,94.55
2023-12-08T12:26:26.140Z,94.67
2023-12-08T12:28:52.679Z,94.73
2023-12-08T12:31:19.120Z,94.70
2023-12-08T12:33:49.426Z,94.74
2023-12-08T12:36:16.889Z,94.84
2023-12-08T12:38:43.972Z,94.85
2023-12-08T12:41:22.998Z,94.70
2023-12-08T12:43:49.497Z,94.69
2023-12-08T12:46:16.161Z,94.78
2023-12-08T12:48:42.783Z,94.93
2023-12-08T12:51:09.793Z,95.02
2023-12-08T12:53:51.030Z,94.81
2023-12-08T12:56:17.774Z,94.83
2023-12-08T12:58:44.234Z,94.91
2023-12-08T13:01:15.194Z,94.84
2023-12-08T13:03:46.703Z,94.99
2023-12-08T13:06:13.723Z,94.98
2023-12-08T13:08:47.342Z,95.03
2023-12-08T13:11:13.808Z,95.08
2023-12-08T13:13:40.246Z,95.14
2023-12-08T13:16:08.600Z,95.26
2023-12-08T13:18:35.997Z,95.47
2023-12-08T13:21:02.776Z,95.52
2023-12-08T13:23:29.529Z,95.73
2023-12-08T13:25:56.028Z,95.78
2023-12-08T13:28:23.723Z,95.85
2023-12-08T13:30:51.299Z,95.91
2023-12-08T13:33:19.587Z,95.85
2023-12-08T13:35:47.183Z,95.89
2023-12-08T13:38:13.796Z,95.92
2023-12-08T13:40:40.675Z,95.88
2023-12-08T13:43:07.195Z,95.83
2023-12-08T13:45:34.027Z,95.96
2023-12-08T13:48:01.029Z,95.99
2023-12-08T13:50:28.967Z,95.95
2023-12-08T13:52:55.421Z,96.00
2023-12-08T13:55:22.549Z,95.95
2023-12-08T13:57:49.878Z,95.87
2023-12-08T14:00:17.812Z,95.75
2023-12-08T14:02:44.712Z,95.76
2023-12-08T14:05:11.935Z,95.68
2023-12-08T14:07:39.135Z,95.61
2023-12-08T14:10:11.469Z,95.52
2023-12-08T14:12:37.914Z,95.37
2023-12-08T14:15:05.529Z,95.24
2023-12-08T14:17:32.706Z,95.01
2023-12-08T14:20:00.336Z,94.86
2023-12-08T14:22:27.362Z,94.95
2023-12-08T14:24:55.422Z,94.53
2023-12-08T14:27:23.145Z,94.44
2023-12-08T14:29:51.322Z,94.34
2023-12-08T14:32:19.664Z,94.45
2023-12-08T14:34:46.534Z,94.35
2023-12-08T14:37:13.241Z,94.27
2023-12-08T14:39:40.369Z,94.26
2023-12-08T14:42:07.499Z,94.08
2023-12-08T14:44:37.228Z,93.96
2023-12-08T14:47:03.925Z,93.85
2023-12-08T14:49:30.674Z,93.85
2023-12-08T14:51:57.239Z,93.91
2023-12-08T14:54:26.771Z,93.81
2023-12-08T14:56:58.972Z,93.85
2023-12-08T14:59:25.549Z,93.66
2023-12-08T15:01:54.778Z,93.57
2023-12-08T15:04:21.666Z,93.71
2023-12-08T15:06:48.233Z,93.72
2023-12-08T15:09:14.832Z,93.87
2023-12-08T15:11:41.641Z,93.94
2023-12-08T15:14:08.206Z,93.88
2023-12-08T15:16:34.673Z,93.94
2023-12-08T15:19:01.304Z,93.92
2023-12-08T15:21:29.373Z,93.94
2023-12-08T15:23:58.354Z,93.85
2023-12-08T15:26:25.967Z,93.76
2023-12-08T15:28:52.404Z,93.47
2023-12-08T15:31:19.042Z,93.44
2023-12-08T15:33:45.625Z,93.49
2023-12-08T15:36:15.181Z,93.57
2023-12-08T15:38:43.323Z,93.61
2023-12-08T15:41:10.445Z,93.64
2023-12-08T15:43:37.575Z,93.44
2023-12-08T15:46:05.578Z,93.48
2023-12-08T15:48:32.377Z,93.34
2023-12-08T15:50:58.959Z,93.31
2023-12-08T15:53:25.708Z,93.24
2023-12-08T15:55:53.331Z,93.14
2023-12-08T15:58:19.840Z,92.78
2023-12-08T16:00:48.117Z,92.82
2023-12-08T16:03:15.495Z,92.69
2023-12-08T16:05:42.305Z,92.69
2023-12-08T16:08:09.015Z,92.35
2023-12-08T16:10:37.829Z,92.25
2023-12-08T16:13:05.144Z,92.30
2023-12-08T16:15:31.643Z,92.36
2023-12-08T16:18:00.678Z,92.18
2023-12-08T16:20:28.760Z,92.33
2023-12-08T16:22:55.185Z,92.41
2023-12-08T16:25:22.351Z,92.36
2023-12-08T16:27:52.636Z,92.33
2023-12-08T16:30:23.953Z,92.30
2023-12-08T16:32:52.482Z,92.16
2023-12-08T16:35:19.053Z,92.08
2023-12-08T16:37:48.325Z,92.04
2023-12-08T16:40:15.171Z,91.90
2023-12-08T16:42:42.662Z,91.84
2023-12-08T16:45:09.599Z,91.89
2023-12-08T16:47:39.396Z,91.79
2023-12-08T16:50:06.880Z,91.75
2023-12-08T16:52:33.414Z,91.97
2023-12-08T16:55:03.046Z,91.95
2023-12-08T16:57:29.736Z,92.00
2023-12-08T16:59:56.490Z,92.23
2023-12-08T17:02:23.239Z,92.34
2023-12-08T17:04:49.811Z,92.14
2023-12-08T17:07:16.648Z,92.04
2023-12-08T17:09:47.158Z,91.68
2023-12-08T17:12:15.745Z,91.59
2023-12-08T17:14:44.044Z,91.64
2023-12-08T17:17:10.595Z,91.87
2023-12-08T17:19:38.189Z,91.64
2023-12-08T17:22:04.658Z,91.81
2023-12-08T17:24:31.589Z,91.72
2023-12-08T17:26:58.688Z,92.02
2023-12-08T17:29:32.989Z,92.12
2023-12-08T17:31:59.493Z,91.90
2023-12-08T17:34:26.205Z,91.83
2023-12-08T17:36:52.818Z,91.67
2023-12-08T17:39:19.603Z,91.71
2023-12-08T17:41:46.741Z,91.75
2023-12-08T17:44:15.525Z,92.21
2023-12-08T17:46:42.540Z,92.28
2023-12-08T17:49:09.532Z,92.24
2023-12-08T17:51:37.922Z,92.17
2023-12-08T17:54:04.415Z,92.19
2023-12-08T17:56:34.008Z,92.30
2023-12-08T17:59:00.534Z,92.26
2023-12-08T18:01:27.375Z,92.33
2023-12-08T18:03:55.787Z,92.34
2023-12-08T18:06:25.065Z,92.18
2023-12-08T18:08:51.677Z,92.26
2023-12-08T18:11:32.241Z,92.13
2023-12-08T18:14:00.763Z,92.10
2023-12-08T18:16:30.282Z,92.27
2023-12-08T18:18:58.229Z,92.28
2023-12-08T18:21:29.827Z,92.33
2023-12-08T18:23:57.671Z,92.46
2023-12-08T18:26:25.615Z,92.50
2023-12-08T18:31:23.042Z,92.51
2023-12-08T18:34:05.603Z,92.66
2023-12-08T18:36:37.045Z,92.59
2023-12-08T18:39:05.421Z,92.74
2023-12-08T18:41:33.106Z,92.67
2023-12-08T18:44:00.531Z,92.63
2023-12-08T18:46:27.181Z,92.73
2023-12-08T18:48:59.064Z,92.82
2023-12-08T18:51:26.494Z,92.81
2023-12-08T18:53:56.060Z,92.81
2023-12-08T18:57:36.185Z,92.83
2023-12-08T19:00:03.008Z,92.80
2023-12-08T19:02:29.960Z,92.86
2023-12-08T19:04:57.187Z,92.71
2023-12-08T19:07:23.817Z,92.85
2023-12-08T19:09:50.250Z,92.87
2023-12-08T19:12:17.444Z,92.67
2023-12-08T19:14:43.930Z,92.61
2023-12-08T19:17:10.493Z,92.51
2023-12-08T19:19:36.971Z,92.48
2023-12-08T19:22:04.054Z,92.38
2023-12-08T19:24:31.681Z,92.40
2023-12-08T19:26:59.115Z,92.38
2023-12-08T19:29:25.815Z,92.48
2023-12-08T19:31:52.677Z,92.61
2023-12-08T19:34:20.089Z,92.64
2023-12-08T19:36:46.790Z,92.49
2023-12-08T19:39:13.617Z,92.64
2023-12-08T19:41:40.144Z,92.46
2023-12-08T19:44:08.073Z,92.32
2023-12-08T19:46:34.786Z,92.11
2023-12-08T19:49:01.348Z,92.04
2023-12-08T19:51:28.161Z,92.02
2023-12-08T19:53:54.648Z,92.05
2023-12-08T19:56:21.153Z,91.98
2023-12-08T19:58:47.614Z,91.90
2023-12-08T20:01:14.110Z,91.96
2023-12-08T20:03:40.808Z,92.04
2023-12-08T20:06:08.041Z,91.87
2023-12-08T20:08:34.673Z,91.80
2023-12-08T20:11:02.160Z,91.89
2023-12-08T20:13:28.651Z,91.88
2023-12-08T20:15:55.363Z,91.73
2023-12-08T20:18:21.813Z,91.66
2023-12-08T20:20:48.527Z,91.74
2023-12-08T20:23:14.941Z,91.87
2023-12-08T20:25:41.476Z,91.82
2023-12-08T20:28:08.777Z,91.75
2023-12-08T20:30:35.864Z,91.83
2023-12-08T20:33:02.739Z,91.70
2023-12-08T20:35:29.275Z,91.72
2023-12-08T20:37:56.342Z,91.82
2023-12-08T20:40:22.983Z,91.60
2023-12-08T20:42:49.863Z,91.53
2023-12-08T20:45:16.491Z,91.59
2023-12-08T20:47:42.947Z,91.43
2023-12-08T20:50:10.455Z,91.30
2023-12-08T20:52:37.183Z,91.27
2023-12-08T20:55:04.468Z,91.47
2023-12-08T20:57:31.464Z,91.14
2023-12-08T20:59:58.087Z,91.08
2023-12-08T21:02:24.690Z,91.14
2023-12-08T21:04:51.254Z,91.06
2023-12-08T21:07:17.825Z,91.19
2023-12-08T21:09:44.527Z,91.39
2023-12-08T21:12:11.124Z,91.40
2023-12-08T21:14:38.390Z,91.39
2023-12-08T21:17:05.017Z,91.32
2023-12-08T21:19:32.472Z,91.29
2023-12-08T21:22:02.413Z,91.20
2023-12-08T21:24:29.401Z,91.29
2023-12-08T21:26:56.250Z,91.22
2023-12-08T21:29:23.057Z,91.23
2023-12-08T21:31:51.684Z,91.28
2023-12-08T21:34:18.289Z,91.34
2023-12-08T21:36:44.952Z,91.38
2023-12-08T21:39:11.869Z,91.21
2023-12-08T21:41:38.700Z,91.20
2023-12-08T21:44:07.590Z,91.21
2023-12-08T21:46:34.885Z,91.14
2023-12-08T21:49:01.773Z,91.15
2023-12-08T21:51:30.817Z,91.06
2023-12-08T21:53:57.958Z,91.18
2023-12-08T21:56:29.543Z,91.08
2023-12-08T21:58:58.308Z,91.01
2023-12-08T22:01:24.792Z,90.89
2023-12-08T22:03:51.353Z,90.85
2023-12-08T22:06:18.460Z,90.82
2023-12-08T22:08:44.994Z,90.95
2023-12-08T22:11:11.529Z,90.78
2023-12-08T22:13:38.072Z,90.72
2023-12-08T22:16:04.931Z,90.61
2023-12-08T22:18:31.816Z,90.49
2023-12-08T22:20:58.497Z,90.61
2023-12-08T22:23:25.036Z,90.60
2023-12-08T22:25:51.464Z,90.61
2023-12-08T22:28:21.505Z,90.59
2023-12-08T22:30:48.121Z,90.58
2023-12-08T22:33:15.474Z,90.54
2023-12-08T22:35:42.437Z,90.60
2023-12-08T22:38:09.205Z,90.83
2023-12-08T22:40:35.941Z,90.96
2023-12-08T22:43:03.030Z,91.07
2023-12-08T22:45:30.094Z,91.09
2023-12-08T22:47:56.981Z,91.19
2023-12-08T22:50:27.292Z,91.22
2023-12-08T22:52:56.017Z,91.00
2023-12-08T22:55:22.517Z,90.78
2023-12-08T22:57:48.930Z,90.60
2023-12-08T23:00:23.034Z,90.57
2023-12-08T23:02:50.501Z,90.63
2023-12-08T23:05:17.096Z,90.61
2023-12-08T23:07:44.274Z,90.63
2023-12-08T23:10:11.040Z,90.60
2023-12-08T23:12:37.792Z,90.49
2023-12-08T23:15:06.061Z,90.30
2023-12-08T23:17:32.769Z,90.04
2023-12-08T23:19:59.430Z,89.99
2023-12-08T23:22:26.680Z,89.71
2023-12-08T23:24:53.694Z,89.53
2023-12-08T23:27:20.952Z,89.56
2023-12-08T23:29:47.550Z,89.43
2023-12-08T23:32:14.212Z,89.40
2023-12-08T23:34:41.575Z,89.46
2023-12-08T23:37:08.359Z,89.48
2023-12-08T23:39:36.336Z,89.39
2023-12-08T23:42:04.834Z,89.50
2023-12-08T23:44:31.583Z,89.27
2023-12-08T23:46:58.159Z,89.21
2023-12-08T23:49:25.417Z,89.15
2023-12-08T23:51:52.174Z,89.07
2023-12-08T23:54:18.793Z,89.11
2023-12-08T23:56:45.336Z,89.18
2023-12-08T23:59:11.890Z,88.85
